Time;durP1;ratioP1;P1;durP2;ratioP2;P2;SDS_P1;SDS_P2;PMS_P1;PMS_P2;Temp;Humidity;BMP_temperature;BMP_pressure;BME280_temperature;BME280_humidity;BME280_pressure;Samples;Min_cycle;Max_cycle;Signal;HPM_P1;HPM_P2
2021/12/24 00:00:44;;;;;;;9.35;4.75;;;;;;;-1.10;77.51;93333.31;5027668;28;20049;-80
2021/12/24 00:03:12;;;;;;;10.45;5.03;;;;;;;-1.01;78.02;93341.81;5042786;28;20051;-80
2021/12/24 00:05:39;;;;;;;7.45;3.90;;;;;;;-0.83;78.12;93352.78;5029433;28;20370;-80
2021/12/24 00:08:06;;;;;;;6.07;3.80;;;;;;;-1.39;76.76;93271.94;5029445;28;20052;-81
2021/12/24 00:10:35;;;;;;;5.97;4.00;;;;;;;-0.87;77.76;93340.59;5035124;28;20170;-80
2021/12/24 00:13:06;;;;;;;7.07;4.18;;;;;;;-1.70;76.72;93216.72;5049552;28;20053;-81
2021/12/24 00:15:52;;;;;;;7.43;4.13;;;;;;;-1.11;77.43;93298.97;5049404;28;20481;-81
2021/12/24 00:18:29;;;;;;;8.15;4.28;;;;;;;-0.87;78.03;93333.81;5049237;28;20132;-81
2021/12/24 00:37:48;;;;;;;13.70;5.05;;;;;;;-1.04;79.61;93324.41;5028659;28;20041;-79
2021/12/24 00:40:18;;;;;;;9.52;4.30;;;;;;;-1.26;80.34;93296.06;5053232;28;20041;-79
2021/12/24 00:42:49;;;;;;;10.25;4.13;;;;;;;-1.15;79.79;93313.53;5053404;28;20037;-79
2021/12/24 00:45:18;;;;;;;9.57;4.22;;;;;;;-1.49;80.26;93268.63;5053108;28;20041;-79
2021/12/24 00:47:46;;;;;;;8.35;3.55;;;;;;;-1.02;80.44;93332.66;5052864;28;20049;-79
2021/12/24 00:50:18;;;;;;;7.72;3.58;;;;;;;-1.13;80.56;93313.41;5052963;28;20072;-79
2021/12/24 00:52:48;;;;;;;15.18;8.27;;;;;;;-1.02;80.48;93333.44;5039273;28;20052;-79
2021/12/24 00:55:19;;;;;;;9.32;4.53;;;;;;;-1.13;80.56;93309.19;5033203;28;20037;-79
2021/12/24 00:57:48;;;;;;;15.70;4.60;;;;;;;-1.00;80.38;93324.03;5032820;28;20485;-78
2021/12/24 01:00:18;;;;;;;12.82;6.93;;;;;;;-1.00;81.34;93313.13;5033009;28;20141;-80
2021/12/24 01:02:47;;;;;;;8.80;4.78;;;;;;;-1.06;80.19;93296.03;5032981;28;20042;-77
2021/12/24 01:05:15;;;;;;;13.55;6.57;;;;;;;-0.98;80.59;93301.19;5032763;28;20038;-79
2021/12/24 01:07:44;;;;;;;9.18;4.75;;;;;;;-1.19;80.55;93276.16;5032616;28;20037;-80
2021/12/24 01:10:13;;;;;;;10.65;5.00;;;;;;;-1.19;80.89;93276.16;5033523;28;20049;-79
2021/12/24 01:12:39;;;;;;;9.75;4.97;;;;;;;-1.18;80.57;93280.25;5033220;28;20056;-78
2021/12/24 01:15:09;;;;;;;10.30;4.60;;;;;;;-1.00;80.60;93311.41;5032907;28;20049;-78
2021/12/24 01:17:41;;;;;;;8.98;3.85;;;;;;;-1.01;80.47;93309.84;5032922;28;20397;-78
2021/12/24 01:20:20;;;;;;;7.72;4.28;;;;;;;-0.97;80.18;93303.56;5032950;28;20508;-78
2021/12/24 01:25:35;;;;;;;6.22;4.03;;;;;;;-0.99;80.69;93295.34;5032597;28;20059;-77
2021/12/24 01:39:08;;;;;;;8.82;4.47;;;;;;;-1.21;81.74;93277.09;5032242;28;20052;-77
2021/12/24 01:44:16;;;;;;;6.32;4.13;;;;;;;-1.43;81.77;93235.34;4998709;28;20056;-77
2021/12/24 01:46:45;;;;;;;7.75;4.10;;;;;;;-1.25;81.54;93270.72;5032132;28;20049;-77
2021/12/24 01:49:12;;;;;;;8.93;3.63;;;;;;;-1.21;81.30;93268.72;5032306;28;20052;-77
2021/12/24 01:51:39;;;;;;;7.78;3.70;;;;;;;-1.24;80.62;93272.31;5032187;28;20064;-77
2021/12/24 01:54:05;;;;;;;8.40;4.32;;;;;;;-1.22;81.02;93269.66;5031921;28;20049;-77
2021/12/24 01:56:32;;;;;;;10.52;5.57;;;;;;;-1.16;81.62;93276.66;5031802;28;20049;-77
2021/12/24 01:58:59;;;;;;;10.80;5.82;;;;;;;-1.11;81.88;93278.81;5032135;28;20094;-77
2021/12/24 02:01:27;;;;;;;13.85;6.50;;;;;;;-1.10;81.93;93276.13;5031733;28;20045;-77
2021/12/24 02:03:56;;;;;;;13.10;6.45;;;;;;;-1.08;82.04;93281.84;5031841;28;20103;-77
2021/12/24 02:06:23;;;;;;;9.43;5.45;;;;;;;-1.09;81.79;93275.22;5031890;28;20049;-77
2021/12/24 02:08:49;;;;;;;14.30;5.90;;;;;;;-1.07;82.26;93257.41;5031650;28;20045;-77
2021/12/24 02:11:16;;;;;;;11.75;5.93;;;;;;;-1.03;81.86;93260.47;5031655;28;20488;-77
2021/12/24 02:13:43;;;;;;;12.77;5.10;;;;;;;-1.12;82.06;93250.28;5031445;28;20500;-77
2021/12/24 02:16:18;;;;;;;14.48;6.45;;;;;;;-1.08;81.51;93259.16;5031698;28;20045;-78
2021/12/24 02:29:55;;;;;;;8.55;4.78;;;;;;;-1.26;82.68;93240.59;5031224;28;20319;-78
2021/12/24 02:32:22;;;;;;;10.55;5.22;;;;;;;-1.33;83.18;93237.84;5031419;28;20045;-78
2021/12/24 02:34:49;;;;;;;9.63;4.78;;;;;;;-1.32;83.34;93239.44;5031457;28;20516;-78
2021/12/24 02:37:18;;;;;;;8.55;4.63;;;;;;;-1.31;83.88;93240.25;5031251;28;20041;-79
2021/12/24 02:39:45;;;;;;;8.48;4.60;;;;;;;-1.39;83.73;93211.47;5031321;28;20041;-79
2021/12/24 02:42:16;;;;;;;9.05;4.38;;;;;;;-1.36;83.77;93206.16;5031047;28;20043;-78
2021/12/24 02:44:45;;;;;;;13.30;6.07;;;;;;;-1.49;84.46;93205.66;5031543;28;20045;-79
2021/12/24 02:47:36;;;;;;;10.98;5.28;;;;;;;-1.55;84.46;93191.88;5031435;28;20041;-79
2021/12/24 02:55:31;;;;;;;8.85;5.20;;;;;;;-1.51;85.83;93207.53;5010697;28;20076;-77
2021/12/24 02:57:58;;;;;;;10.32;5.05;;;;;;;-1.61;85.58;93192.44;5011251;28;20402;-78
2021/12/24 03:00:27;;;;;;;7.20;4.75;;;;;;;-1.59;85.65;93190.56;5010634;28;20042;-78
2021/12/24 03:02:55;;;;;;;9.85;5.03;;;;;;;-1.55;85.56;93193.59;5011206;28;20054;-78
2021/12/24 03:05:24;;;;;;;8.27;5.25;;;;;;;-1.66;85.37;93165.13;5010709;28;20049;-79
2021/12/24 03:07:52;;;;;;;7.70;4.50;;;;;;;-1.96;85.89;93125.81;5011991;28;20052;-78
2021/12/24 03:10:23;;;;;;;8.82;5.30;;;;;;;-1.55;85.70;93191.88;5011264;28;20041;-78
2021/12/24 03:12:53;;;;;;;13.13;5.50;;;;;;;-1.55;85.79;93183.53;5011091;28;20054;-77
2021/12/24 03:15:23;;;;;;;8.95;4.57;;;;;;;-1.62;85.81;93165.66;5017603;28;20045;-78
2021/12/24 03:17:53;;;;;;;6.07;4.20;;;;;;;-1.57;86.37;93186.19;5029908;28;20432;-78
2021/12/24 03:20:21;;;;;;;8.00;4.85;;;;;;;-1.53;86.44;93182.47;5023404;28;20046;-78
2021/12/24 03:23:02;;;;;;;8.10;4.05;;;;;;;-1.53;86.30;93184.19;5021084;28;20392;-78
2021/12/24 03:25:31;;;;;;;9.15;4.80;;;;;;;-1.72;86.60;93158.09;5030038;28;20111;-78
2021/12/24 03:27:58;;;;;;;9.77;5.30;;;;;;;-1.51;85.76;93192.41;5030196;28;20045;-77
2021/12/24 03:30:26;;;;;;;11.38;5.60;;;;;;;-1.62;85.30;93189.13;5030585;28;20042;-78
2021/12/24 03:32:53;;;;;;;8.93;5.30;;;;;;;-1.65;85.52;93189.41;5029817;28;20041;-77
2021/12/24 03:35:19;;;;;;;10.88;5.72;;;;;;;-1.91;86.59;93142.13;5030231;28;20045;-77
2021/12/24 03:37:46;;;;;;;10.18;5.68;;;;;;;-1.53;86.60;93191.75;5029768;28;20049;-78
2021/12/24 03:40:13;;;;;;;11.38;6.10;;;;;;;-1.51;86.70;93167.22;5030058;28;20052;-78
2021/12/24 03:42:42;;;;;;;10.15;6.25;;;;;;;-1.61;87.27;93147.88;5030027;28;20068;-78
2021/12/24 03:45:22;;;;;;;10.02;5.47;;;;;;;-1.58;87.18;93148.56;5029915;28;20056;-79
2021/12/24 03:47:54;;;;;;;6.65;4.45;;;;;;;-1.66;86.79;93121.53;5029671;28;20127;-78
2021/12/24 03:50:24;;;;;;;7.20;3.80;;;;;;;-1.46;86.45;93126.47;5029631;28;20057;-77
2021/12/24 03:53:04;;;;;;;10.07;3.95;;;;;;;-1.31;86.15;93149.53;5029728;28;20049;-78
2021/12/24 03:55:30;;;;;;;6.68;3.95;;;;;;;-1.32;86.24;93143.69;5029887;28;20047;-79
2021/12/24 03:57:58;;;;;;;7.25;4.38;;;;;;;-1.35;85.84;93123.78;5029517;28;20058;-79
2021/12/24 04:00:28;;;;;;;9.23;4.15;;;;;;;-1.44;85.64;93109.53;5029379;28;20104;-80
2021/12/24 04:02:55;;;;;;;9.77;4.20;;;;;;;-1.84;85.66;93061.81;5029741;28;20075;-80
2021/12/24 04:05:22;;;;;;;5.97;3.72;;;;;;;-1.21;85.54;93146.03;5029365;28;20469;-80
2021/12/24 04:07:49;;;;;;;6.88;4.32;;;;;;;-1.38;85.63;93117.31;5028586;28;20056;-79
2021/12/24 04:10:27;;;;;;;6.18;3.92;;;;;;;-1.15;85.63;93153.97;5029869;28;20041;-79
2021/12/24 04:12:54;;;;;;;6.80;4.03;;;;;;;-1.38;85.01;93098.88;5029388;28;20037;-80
2021/12/24 04:15:22;;;;;;;10.38;4.90;;;;;;;-1.10;85.50;93144.25;5029460;28;20050;-79
2021/12/24 04:17:49;;;;;;;7.38;4.90;;;;;;;-1.73;84.78;93060.06;5029286;28;20050;-80
2021/12/24 04:25:45;;;;;;;10.02;5.63;;;;;;;-0.96;84.48;93158.13;5029148;28;20102;-79
2021/12/24 04:28:12;;;;;;;9.13;5.05;;;;;;;-1.02;84.42;93153.66;5029266;28;20052;-78
2021/12/24 04:30:46;;;;;;;9.85;4.90;;;;;;;-0.98;84.49;93175.09;5029492;28;20041;-77
2021/12/24 04:33:18;;;;;;;7.75;3.97;;;;;;;-1.00;84.53;93160.13;5029524;28;20063;-78
2021/12/24 04:35:55;;;;;;;8.57;4.32;;;;;;;-1.11;84.39;93137.63;5029073;28;20444;-79
2021/12/24 04:38:43;;;;;;;9.55;5.25;;;;;;;-1.04;84.37;93152.97;5028887;28;20049;-78
2021/12/24 04:52:20;;;;;;;6.13;4.07;;;;;;;-1.01;84.62;93156.03;5029261;28;20048;-77
2021/12/24 05:03:05;;;;;;;7.75;4.53;;;;;;;-0.88;84.50;93157.44;5029444;28;20160;-77
2021/12/24 05:05:45;;;;;;;8.23;4.15;;;;;;;-0.86;84.37;93156.34;5029246;28;20057;-77
2021/12/24 05:08:22;;;;;;;8.27;4.78;;;;;;;-1.07;84.45;93138.91;5029201;28;20061;-77
2021/12/24 05:10:51;;;;;;;9.07;4.53;;;;;;;-0.87;84.73;93161.53;5029417;28;20100;-78
2021/12/24 05:13:19;;;;;;;8.13;4.80;;;;;;;-1.04;84.16;93131.09;5028842;28;20133;-79
2021/12/24 05:15:50;;;;;;;5.55;3.47;;;;;;;-0.92;84.92;93158.63;5028781;28;20052;-79
2021/12/24 05:18:33;;;;;;;7.25;4.28;;;;;;;-1.07;84.66;93133.88;5030064;28;20050;-79
2021/12/24 05:23:44;;;;;;;10.43;5.82;;;;;;;-0.89;85.36;93153.31;5032493;28;20060;-78
2021/12/24 05:26:13;;;;;;;10.18;5.65;;;;;;;-1.05;84.90;93134.56;5032414;28;20488;-78
2021/12/24 05:28:40;;;;;;;6.28;3.85;;;;;;;-1.04;85.37;93136.13;5032263;28;20411;-79
2021/12/24 05:31:06;;;;;;;8.50;4.57;;;;;;;-0.86;85.52;93151.31;5032508;28;20052;-78
2021/12/24 05:33:35;;;;;;;9.07;4.88;;;;;;;-0.86;85.75;93153.03;5032501;28;20115;-79
2021/12/24 05:36:01;;;;;;;9.73;5.30;;;;;;;-0.97;85.73;93143.94;5032031;28;20052;-79
2021/12/24 05:38:30;;;;;;;8.13;4.45;;;;;;;-0.95;85.85;93154.66;5032385;28;20053;-79
2021/12/24 05:40:57;;;;;;;7.82;4.55;;;;;;;-0.85;85.95;93167.22;5032070;28;20455;-78
2021/12/24 05:43:24;;;;;;;7.10;4.10;;;;;;;-0.88;86.27;93163.25;5031912;28;20046;-79
2021/12/24 05:45:50;;;;;;;8.40;4.15;;;;;;;-0.89;85.96;93164.19;5032049;28;20104;-79
2021/12/24 05:48:17;;;;;;;7.05;3.80;;;;;;;-0.85;86.49;93160.47;5032305;28;20119;-78
2021/12/24 05:50:46;;;;;;;9.85;5.90;;;;;;;-0.82;86.44;93159.38;5031940;28;20053;-79
2021/12/24 05:53:13;;;;;;;9.82;5.28;;;;;;;-0.77;86.36;93144.63;5032181;28;20045;-79
2021/12/24 05:55:40;;;;;;;10.25;5.32;;;;;;;-0.92;86.58;93116.56;5031797;28;20451;-79
2021/12/24 05:58:08;;;;;;;8.32;5.03;;;;;;;-0.71;86.40;93135.69;5031779;28;20049;-79
2021/12/24 06:00:38;;;;;;;7.35;4.95;;;;;;;-0.90;86.84;93101.28;5031934;28;20049;-79
2021/12/24 06:03:05;;;;;;;8.40;4.97;;;;;;;-1.36;86.64;93034.81;5031593;28;20042;-79
2021/12/24 06:05:32;;;;;;;8.70;5.35;;;;;;;-0.65;87.12;93127.53;5031744;28;20678;-79
2021/12/24 06:08:01;;;;;;;9.63;5.60;;;;;;;-0.83;86.84;93093.00;5031558;28;20049;-79
2021/12/24 06:10:28;;;;;;;8.05;5.05;;;;;;;-0.65;86.49;93119.19;5031492;28;20512;-79
2021/12/24 06:12:55;;;;;;;7.63;4.75;;;;;;;-0.74;86.23;93105.72;5031535;28;20060;-78
2021/12/24 06:15:24;;;;;;;10.20;5.22;;;;;;;-0.66;86.13;93118.38;5031723;28;20494;-78
2021/12/24 06:17:53;;;;;;;11.35;6.32;;;;;;;-0.65;86.55;93127.53;5031658;28;20080;-79
2021/12/24 06:20:21;;;;;;;13.52;6.50;;;;;;;-0.62;86.80;93126.47;5031294;28;20912;-78
2021/12/24 06:22:48;;;;;;;16.25;8.80;;;;;;;-0.54;87.38;93141.69;5031712;28;20053;-79
2021/12/24 06:25:18;;;;;;;16.42;7.57;;;;;;;-0.48;87.28;93145.34;5031230;28;20516;-78
2021/12/24 06:27:45;;;;;;;16.27;8.05;;;;;;;-0.43;87.77;93153.28;5031257;28;20057;-79
2021/12/24 06:30:13;;;;;;;22.88;9.85;;;;;;;-0.39;87.65;93159.63;5030647;28;20171;-79
2021/12/24 06:32:40;;;;;;;15.38;8.10;;;;;;;-0.60;87.20;93117.03;5031383;28;20050;-79
2021/12/24 06:35:09;;;;;;;12.52;6.90;;;;;;;-0.33;86.61;93158.28;5031133;28;20044;-79
2021/12/24 06:37:36;;;;;;;18.77;9.13;;;;;;;-0.30;86.72;93161.31;5030991;28;20045;-78
2021/12/24 06:40:04;;;;;;;15.50;6.93;;;;;;;-0.28;86.67;93159.44;5030988;28;20029;-78
2021/12/24 06:42:33;;;;;;;13.65;7.35;;;;;;;-0.23;86.71;93161.50;5031372;28;20389;-78
2021/12/24 06:45:01;;;;;;;18.45;9.27;;;;;;;-0.34;86.71;93149.09;5030984;28;20049;-79
2021/12/24 06:47:28;;;;;;;13.10;8.48;;;;;;;-0.17;86.53;93171.06;5030901;28;20428;-78
2021/12/24 06:49:55;;;;;;;16.52;9.27;;;;;;;-0.27;86.58;93148.38;5031172;28;20050;-79
2021/12/24 06:52:22;;;;;;;13.65;7.72;;;;;;;0.00;85.64;93173.72;5030669;28;20049;-78
2021/12/24 06:54:49;;;;;;;16.52;7.75;;;;;;;-0.08;85.11;93146.66;5030666;28;20045;-78
2021/12/24 06:57:18;;;;;;;14.80;8.32;;;;;;;0.05;84.42;93163.94;5030971;28;20438;-78
2021/12/24 06:59:47;;;;;;;13.45;7.72;;;;;;;-0.02;83.83;93140.22;5031183;28;20049;-79
2021/12/24 07:02:14;;;;;;;15.07;7.28;;;;;;;-0.03;83.83;93129.34;5030445;28;20505;-77
2021/12/24 07:04:41;;;;;;;15.63;7.82;;;;;;;0.11;83.42;93137.31;5027421;28;20046;-78
2021/12/24 07:07:08;;;;;;;16.88;7.45;;;;;;;0.16;83.38;93162.94;5028987;28;20049;-79
2021/12/24 07:09:41;;;;;;;17.58;8.68;;;;;;;0.16;83.29;93159.59;5029546;28;20052;-79
2021/12/24 07:12:09;;;;;;;19.38;9.23;;;;;;;0.02;83.45;93146.56;5030424;28;20045;-78
2021/12/24 07:14:37;;;;;;;17.67;9.18;;;;;;;0.17;83.58;93161.19;5030021;28;20050;-79
2021/12/24 07:17:06;;;;;;;19.05;10.02;;;;;;;-0.03;84.22;93126.81;5030186;28;20180;-80
2021/12/24 07:19:33;;;;;;;21.55;11.00;;;;;;;-0.07;84.28;93104.50;5030715;28;20044;-81
2021/12/24 07:22:00;;;;;;;20.00;10.10;;;;;;;0.26;85.00;93155.25;5030633;28;20064;-80
2021/12/24 07:24:27;;;;;;;18.65;10.27;;;;;;;0.26;84.55;93151.00;5030322;28;20050;-80
2021/12/24 07:26:54;;;;;;;41.17;17.20;;;;;;;0.30;84.90;93159.06;5030194;28;20061;-80
2021/12/24 07:29:21;;;;;;;64.68;33.35;;;;;;;0.33;84.67;93156.25;5029737;28;20504;-81
2021/12/24 07:31:48;;;;;;;24.15;12.95;;;;;;;0.32;84.44;93153.88;5002397;28;20080;-81
2021/12/24 07:34:16;;;;;;;15.07;8.57;;;;;;;0.35;84.44;93153.56;5010109;28;20038;-81
2021/12/24 07:36:43;;;;;;;21.27;10.25;;;;;;;0.43;84.43;93155.34;5010005;28;20048;-81
2021/12/24 07:39:10;;;;;;;23.88;11.07;;;;;;;0.20;84.31;93102.78;5010051;28;20406;-81
2021/12/24 07:41:36;;;;;;;23.08;12.82;;;;;;;0.15;84.08;93084.75;5010551;28;20048;-80
2021/12/24 07:44:04;;;;;;;23.67;12.02;;;;;;;0.70;83.41;93148.56;5010412;28;20050;-80
2021/12/24 07:46:37;;;;;;;21.25;10.40;;;;;;;0.79;83.66;93150.19;5009383;28;20037;-80
2021/12/24 07:49:18;;;;;;;19.35;10.43;;;;;;;0.92;83.61;93154.81;5009289;28;20044;-80
2021/12/24 07:52:05;;;;;;;9.65;6.18;;;;;;;1.07;82.78;93157.56;5010134;28;20100;-82
2021/12/24 07:54:33;;;;;;;10.05;6.07;;;;;;;0.99;82.33;93144.88;5009932;28;20042;-82
2021/12/24 07:57:01;;;;;;;8.65;5.72;;;;;;;0.54;83.19;93066.66;5009895;28;20050;-83
2021/12/24 07:59:29;;;;;;;11.65;7.38;;;;;;;0.61;82.38;93071.88;5006154;28;20041;-84
2021/12/24 08:01:56;;;;;;;13.02;6.80;;;;;;;0.77;82.10;93092.19;5010537;28;20073;-85
2021/12/24 08:04:24;;;;;;;11.82;6.78;;;;;;;0.72;82.38;93085.97;5010309;28;20402;-85
2021/12/24 08:06:53;;;;;;;18.42;10.40;;;;;;;1.13;82.87;93156.16;5023529;28;20410;-85
2021/12/24 08:09:20;;;;;;;14.82;8.40;;;;;;;0.74;82.18;93094.22;5002784;28;20072;-85
2021/12/24 08:11:47;;;;;;;12.85;7.30;;;;;;;0.67;82.66;93083.91;5021637;28;20096;-85
2021/12/24 08:14:14;;;;;;;9.93;6.07;;;;;;;0.89;83.15;93105.31;5009803;28;20137;-85
2021/12/24 08:16:41;;;;;;;9.55;6.15;;;;;;;1.43;83.49;93175.06;5011401;28;20077;-85
2021/12/24 08:19:08;;;;;;;12.15;7.20;;;;;;;0.93;83.36;93088.13;5029274;28;20059;-85
2021/12/24 08:21:35;;;;;;;10.43;4.80;;;;;;;1.52;83.29;93165.75;5029331;28;20681;-83
2021/12/24 08:24:03;;;;;;;10.25;5.57;;;;;;;1.35;83.48;93126.19;5029266;28;20137;-83
2021/12/24 08:26:31;;;;;;;10.52;5.20;;;;;;;1.55;83.34;93146.94;5029439;28;20084;-82
2021/12/24 08:28:58;;;;;;;7.43;3.92;;;;;;;1.53;82.60;93142.03;5029965;28;20053;-82
2021/12/24 08:31:25;;;;;;;10.77;5.93;;;;;;;0.85;84.07;93023.16;5029818;28;20469;-81
2021/12/24 08:33:52;;;;;;;9.60;5.93;;;;;;;1.48;83.94;93098.66;5029579;28;20509;-80
2021/12/24 08:36:18;;;;;;;10.50;5.88;;;;;;;1.81;83.91;93126.53;5013762;28;20046;-82
2021/12/24 08:38:45;;;;;;;11.98;6.47;;;;;;;1.95;84.21;93121.81;5007091;28;20049;-81
2021/12/24 08:41:14;;;;;;;11.38;5.63;;;;;;;1.86;83.56;93104.06;5009284;28;20042;-82
2021/12/24 08:43:41;;;;;;;10.05;4.97;;;;;;;2.09;83.18;93125.44;5009554;28;20042;-82
2021/12/24 08:46:07;;;;;;;9.10;5.38;;;;;;;2.21;83.09;93120.81;5009373;28;20050;-81
2021/12/24 08:48:34;;;;;;;9.20;5.32;;;;;;;2.21;82.72;93108.97;5009426;28;20046;-82
2021/12/24 08:51:01;;;;;;;9.77;4.95;;;;;;;2.17;82.71;93086.63;5009101;28;20147;-80
2021/12/24 08:53:28;;;;;;;9.00;5.50;;;;;;;2.38;82.91;93119.06;5014802;28;20045;-81
2021/12/24 08:55:55;;;;;;;8.50;5.20;;;;;;;2.22;82.29;93086.94;5032906;28;20137;-81
2021/12/24 08:58:23;;;;;;;11.90;6.03;;;;;;;2.56;82.59;93126.47;5033089;28;20049;-81
2021/12/24 09:00:50;;;;;;;15.00;7.18;;;;;;;2.54;81.99;93100.47;5032729;28;20045;-81
2021/12/24 09:03:19;;;;;;;15.50;8.10;;;;;;;2.69;82.54;93117.56;5032333;28;20049;-82
2021/12/24 09:05:47;;;;;;;11.38;6.38;;;;;;;2.69;82.14;93094.75;5032849;28;20046;-81
2021/12/24 09:08:14;;;;;;;12.00;7.15;;;;;;;2.79;82.69;93097.88;5032714;28;20052;-81
2021/12/24 09:10:41;;;;;;;12.68;5.28;;;;;;;2.44;82.63;93041.59;5032467;28;20140;-82
2021/12/24 09:13:08;;;;;;;9.07;5.47;;;;;;;2.79;82.08;93083.44;5024345;28;20482;-82
2021/12/24 09:15:37;;;;;;;9.48;5.25;;;;;;;3.00;82.25;93106.69;5012795;28;20053;-82
2021/12/24 09:18:05;;;;;;;11.90;6.55;;;;;;;2.91;82.62;93076.25;5012577;28;20053;-82
2021/12/24 09:20:37;;;;;;;10.70;5.43;;;;;;;2.97;81.93;93068.94;5012707;28;20513;-81
2021/12/24 09:23:05;;;;;;;28.25;15.98;;;;;;;3.21;82.18;93101.03;5013140;28;20050;-81
2021/12/24 09:25:32;;;;;;;11.23;6.72;;;;;;;2.72;82.41;93021.66;5013454;28;20053;-82
2021/12/24 09:28:00;;;;;;;10.18;5.68;;;;;;;3.31;82.87;93086.38;5013399;28;20046;-81
2021/12/24 09:30:29;;;;;;;11.98;6.28;;;;;;;3.34;82.45;93082.72;5013213;28;20045;-82
2021/12/24 09:32:57;;;;;;;14.15;6.78;;;;;;;2.74;82.39;92994.34;5012367;28;20070;-82
2021/12/24 09:35:26;;;;;;;25.05;14.07;;;;;;;3.21;82.27;93057.88;5012391;28;20053;-83
2021/12/24 09:37:53;;;;;;;13.43;8.93;;;;;;;3.52;82.33;93087.50;5017850;28;20091;-82
2021/12/24 09:40:20;;;;;;;12.65;6.55;;;;;;;2.72;82.91;92945.56;5032340;28;20053;-83
2021/12/24 09:42:48;;;;;;;14.98;7.63;;;;;;;3.27;82.15;93026.72;5031962;28;20489;-83
2021/12/24 09:45:16;;;;;;;16.13;7.75;;;;;;;3.63;81.56;93073.63;5032397;28;20045;-82
2021/12/24 09:47:45;;;;;;;16.35;8.18;;;;;;;3.27;81.91;93018.31;5032721;28;20123;-82
2021/12/24 09:50:18;;;;;;;15.88;8.60;;;;;;;3.67;83.00;93071.53;5019199;28;20058;-83
2021/12/24 09:52:46;;;;;;;16.30;7.20;;;;;;;3.63;82.56;93053.31;5012610;28;20497;-83
2021/12/24 09:55:15;;;;;;;10.70;6.00;;;;;;;3.76;81.98;93047.66;5030581;28;20050;-83
2021/12/24 09:57:43;;;;;;;9.38;5.40;;;;;;;3.75;82.48;93046.03;5031984;28;20405;-82
2021/12/24 10:00:12;;;;;;;9.32;5.50;;;;;;;3.76;81.34;93034.16;5032392;28;20550;-82
2021/12/24 10:02:43;;;;;;;8.93;4.93;;;;;;;3.68;81.86;93009.59;5031793;28;20469;-83
2021/12/24 10:05:36;;;;;;;8.35;5.45;;;;;;;3.78;82.94;93015.22;5031223;28;20465;-83
2021/12/24 10:08:07;;;;;;;8.93;6.07;;;;;;;3.80;83.08;93010.75;5032030;28;20053;-83
2021/12/24 10:10:35;;;;;;;9.48;5.20;;;;;;;3.91;81.65;93021.47;5027925;28;20038;-82
2021/12/24 10:13:29;;;;;;;6.50;3.70;;;;;;;3.99;82.30;93026.47;5012407;28;20053;-83
2021/12/24 10:15:58;;;;;;;7.40;3.70;;;;;;;4.02;82.65;93028.66;5011506;28;20042;-84
2021/12/24 10:18:30;;;;;;;9.48;5.22;;;;;;;3.04;83.12;92872.72;5011838;28;20060;-83
2021/12/24 10:21:04;;;;;;;10.30;4.90;;;;;;;4.05;82.26;93009.72;5011904;28;20042;-83
2021/12/24 10:23:47;;;;;;;11.57;6.53;;;;;;;4.07;82.89;93012.91;5010745;28;20045;-83
2021/12/24 10:26:22;;;;;;;9.95;5.50;;;;;;;3.47;82.99;92917.06;5029781;28;20128;-83
2021/12/24 10:28:51;;;;;;;8.35;4.03;;;;;;;4.13;83.44;93015.53;5030229;28;20045;-82
2021/12/24 10:31:20;;;;;;;7.43;4.00;;;;;;;4.02;82.85;92990.53;5029466;28;20056;-82
2021/12/24 10:34:07;;;;;;;9.65;6.05;;;;;;;4.17;82.08;93018.50;5031586;28;20075;-81
2021/12/24 10:36:52;;;;;;;7.30;3.78;;;;;;;3.81;82.07;92950.56;5031009;28;20037;-80
2021/12/24 10:39:21;;;;;;;9.38;5.30;;;;;;;4.03;82.76;92979.41;5030864;28;20041;-80
2021/12/24 10:41:49;;;;;;;12.57;6.03;;;;;;;3.98;81.87;92974.84;5030959;28;20041;-81
2021/12/24 10:44:18;;;;;;;10.38;5.22;;;;;;;3.91;82.24;92963.81;5030499;28;20107;-80
2021/12/24 10:46:59;;;;;;;10.90;6.30;;;;;;;4.14;83.30;92996.78;5030695;28;20048;-80
2021/12/24 10:49:38;;;;;;;13.75;6.72;;;;;;;4.28;82.30;93002.84;5031059;28;20156;-81
2021/12/24 10:52:27;;;;;;;15.10;8.23;;;;;;;4.17;82.08;92980.38;5030945;28;20129;-81
2021/12/24 10:54:56;;;;;;;12.32;7.30;;;;;;;4.34;82.06;92985.28;5015935;28;20049;-80
2021/12/24 10:57:26;;;;;;;11.15;6.63;;;;;;;4.44;82.05;92990.09;5010908;28;20053;-80
2021/12/24 10:59:55;;;;;;;8.77;5.57;;;;;;;4.27;82.28;92962.31;5011148;28;20057;-82
2021/12/24 11:02:27;;;;;;;11.32;6.63;;;;;;;4.47;82.40;92982.91;5010553;28;20045;-80
2021/12/24 11:04:54;;;;;;;9.18;5.40;;;;;;;4.50;82.18;92986.84;5011013;28;20046;-82
2021/12/24 11:07:38;;;;;;;12.93;7.47;;;;;;;4.54;82.21;92980.44;5010740;28;20054;-81
2021/12/24 11:10:13;;;;;;;11.25;5.70;;;;;;;4.24;81.15;92932.97;5010409;28;20442;-82
2021/12/24 11:12:42;;;;;;;11.63;5.15;;;;;;;3.70;81.24;92850.19;5010171;28;20046;-82
2021/12/24 11:15:29;;;;;;;9.40;4.47;;;;;;;4.61;81.18;92978.75;5010711;28;20046;-82
2021/12/24 11:17:58;;;;;;;10.48;4.85;;;;;;;4.62;80.23;92971.91;5010672;28;20050;-83
2021/12/24 11:20:28;;;;;;;10.32;5.22;;;;;;;4.54;82.04;92950.69;5010173;28;20045;-82
2021/12/24 11:23:00;;;;;;;14.52;7.57;;;;;;;4.63;82.50;92961.56;5010514;28;20136;-83
2021/12/24 11:25:29;;;;;;;11.30;5.45;;;;;;;4.72;82.07;92953.81;5010205;28;20045;-82
2021/12/24 11:27:56;;;;;;;12.07;5.53;;;;;;;4.08;81.17;92847.50;5010169;28;20037;-82
2021/12/24 11:30:24;;;;;;;11.52;6.40;;;;;;;4.76;80.80;92942.31;5010171;28;20053;-81
2021/12/24 11:32:51;;;;;;;11.95;5.57;;;;;;;4.40;80.69;92893.81;5010411;28;20054;-81
2021/12/24 11:35:19;;;;;;;11.05;5.32;;;;;;;4.81;81.20;92942.56;5010124;28;20050;-81
2021/12/24 11:37:48;;;;;;;8.68;5.57;;;;;;;4.82;80.92;92939.84;5010517;28;20071;-81
2021/12/24 11:40:20;;;;;;;7.18;4.07;;;;;;;4.40;81.04;92888.72;5010301;28;20410;-81
2021/12/24 11:42:50;;;;;;;8.80;4.45;;;;;;;4.49;80.96;92907.19;5009983;28;20048;-82
2021/12/24 11:45:17;;;;;;;10.77;4.55;;;;;;;4.75;81.06;92935.63;5010385;28;20459;-81
2021/12/24 11:47:45;;;;;;;12.70;5.07;;;;;;;4.48;81.40;92900.53;5010636;28;20041;-82
2021/12/24 11:50:11;;;;;;;11.50;6.18;;;;;;;4.71;81.84;92919.19;5009967;28;20080;-80
2021/12/24 11:52:40;;;;;;;11.55;6.70;;;;;;;4.51;81.17;92879.06;5009902;28;20038;-81
2021/12/24 11:55:08;;;;;;;12.52;6.43;;;;;;;5.03;81.59;92938.28;5027300;28;20069;-81
2021/12/24 11:57:50;;;;;;;10.30;5.10;;;;;;;4.94;80.55;92914.69;5029774;28;20053;-80
2021/12/24 12:00:23;;;;;;;7.82;4.25;;;;;;;4.82;80.50;92899.13;5029787;28;20393;-80
2021/12/24 12:02:50;;;;;;;9.68;4.82;;;;;;;5.01;81.46;92932.59;5029645;28;20045;-80
2021/12/24 12:05:22;;;;;;;9.38;4.65;;;;;;;5.03;80.93;92940.03;5029606;28;20103;-80
2021/12/24 12:07:51;;;;;;;11.57;4.95;;;;;;;5.04;80.98;92934.75;5029376;28;20049;-80
2021/12/24 12:10:49;;;;;;;13.98;5.55;;;;;;;4.79;81.56;92894.41;5029297;28;20049;-82
2021/12/24 12:13:43;;;;;;;9.75;3.92;;;;;;;4.98;81.35;92927.03;5029652;28;20054;-82
2021/12/24 12:16:13;;;;;;;9.52;4.18;;;;;;;5.05;81.77;92926.13;5029254;28;20120;-81
2021/12/24 12:18:47;;;;;;;9.80;4.57;;;;;;;5.02;81.86;92913.00;5029222;28;20045;-80
2021/12/24 12:21:21;;;;;;;13.63;5.10;;;;;;;5.06;81.73;92922.63;5016587;28;20050;-81
2021/12/24 12:26:49;;;;;;;12.05;4.22;;;;;;;4.95;81.30;92903.53;4985229;28;20429;-81
2021/12/24 12:29:42;;;;;;;8.02;4.60;;;;;;;4.94;81.56;92898.63;5008531;28;20045;-82
2021/12/24 12:32:27;;;;;;;16.90;10.70;;;;;;;4.76;81.42;92886.31;4994209;28;20475;-82
2021/12/24 12:34:58;;;;;;;11.43;5.60;;;;;;;4.82;81.88;92878.00;5009359;28;20053;-83
2021/12/24 12:37:27;;;;;;;11.38;5.32;;;;;;;4.96;81.19;92881.44;5009442;28;20049;-82
2021/12/24 12:39:56;;;;;;;10.10;5.43;;;;;;;5.18;81.64;92905.09;5009299;28;20050;-83
2021/12/24 12:42:25;;;;;;;8.63;4.80;;;;;;;5.21;81.02;92907.28;5009059;28;20045;-83
2021/12/24 12:44:56;;;;;;;7.05;4.35;;;;;;;5.01;81.05;92878.34;5009521;28;20041;-83
2021/12/24 12:47:26;;;;;;;8.55;6.28;;;;;;;5.01;80.80;92871.50;5009176;28;20042;-83
2021/12/24 12:50:16;;;;;;;11.05;5.47;;;;;;;5.09;81.63;92885.81;5009244;28;20065;-84
2021/12/24 12:52:43;;;;;;;13.48;6.00;;;;;;;4.62;80.89;92820.06;5008810;28;20460;-85
2021/12/24 12:55:28;;;;;;;11.90;6.63;;;;;;;5.22;80.80;92903.78;5025016;28;20049;-85
2021/12/24 12:58:19;;;;;;;11.68;6.03;;;;;;;4.72;80.75;92829.94;5009547;28;20038;-85
2021/12/24 13:01:07;;;;;;;11.63;5.93;;;;;;;5.19;80.89;92914.31;5009481;28;20417;-85
2021/12/24 13:03:54;;;;;;;12.93;8.07;;;;;;;5.00;81.28;92879.31;5009226;28;20132;-83
2021/12/24 13:06:22;;;;;;;9.73;5.90;;;;;;;5.15;81.77;92899.59;5008668;28;20042;-84